createdAt,value
2022-12-24T00:00:12.499Z,33.30
2022-12-24T00:02:39.682Z,26.90
2022-12-24T00:05:08.846Z,31.60
2022-12-24T00:07:35.681Z,32.80
2022-12-24T00:10:03.283Z,37.70
2022-12-24T00:12:30.621Z,39.70
2022-12-24T00:14:57.752Z,39.10
2022-12-24T00:17:24.912Z,36.60
2022-12-24T00:19:51.739Z,34.90
2022-12-24T00:22:18.585Z,38.10
2022-12-24T00:24:45.602Z,36.20
2022-12-24T00:27:12.876Z,33.30
2022-12-24T00:29:40.376Z,37.10
2022-12-24T00:32:10.373Z,37.40
2022-12-24T00:34:37.904Z,31.70
2022-12-24T00:37:05.028Z,27.60
2022-12-24T00:39:33.846Z,30.70
2022-12-24T00:42:00.848Z,35.00
2022-12-24T00:44:27.736Z,33.80
2022-12-24T00:46:55.389Z,33.80
2022-12-24T00:49:22.715Z,34.90
2022-12-24T00:51:50.606Z,38.60
2022-12-24T00:54:17.522Z,36.20
2022-12-24T00:56:44.445Z,39.50
2022-12-24T00:59:11.423Z,33.20
2022-12-24T01:01:38.573Z,32.80
2022-12-24T01:04:25.216Z,30.50
2022-12-24T01:06:52.385Z,34.50
2022-12-24T01:09:19.356Z,20.60
2022-12-24T01:59:40.275Z,31.00
2022-12-24T02:02:07.750Z,32.10
2022-12-24T02:04:42.990Z,30.60
2022-12-24T02:07:09.884Z,30.10
2022-12-24T02:09:37.089Z,29.00
2022-12-24T02:12:04.795Z,34.00
2022-12-24T02:14:32.522Z,24.90
2022-12-24T02:17:29.558Z,24.20
2022-12-24T02:20:21.787Z,25.00
2022-12-24T02:23:07.765Z,28.90
2022-12-24T02:26:00.240Z,33.00
2022-12-24T02:29:05.035Z,30.20
2022-12-24T02:32:09.022Z,26.90
2022-12-24T02:34:41.127Z,32.40
2022-12-24T02:37:12.626Z,32.90
2022-12-24T02:39:52.437Z,29.60
2022-12-24T02:42:22.637Z,31.90
2022-12-24T02:44:52.679Z,29.00
2022-12-24T02:47:20.934Z,37.50
2022-12-24T02:49:48.082Z,26.20
2022-12-24T02:52:48.423Z,25.60
2022-12-24T02:55:33.996Z,26.90
2022-12-24T02:58:07.286Z,37.30
2022-12-24T03:00:49.471Z,37.40
2022-12-24T03:03:38.761Z,29.50
2022-12-24T03:06:44.089Z,29.80
2022-12-24T03:09:36.294Z,27.20
2022-12-24T03:12:10.600Z,29.60
2022-12-24T03:14:39.095Z,33.70
2022-12-24T03:17:06.019Z,30.40
2022-12-24T03:19:33.086Z,32.80
2022-12-24T03:22:00.492Z,24.80
2022-12-24T03:24:27.624Z,25.30
2022-12-24T03:26:54.882Z,22.20
2022-12-24T03:29:21.870Z,26.40
2022-12-24T03:31:50.974Z,26.90
2022-12-24T03:34:18.222Z,29.70
2022-12-24T03:36:45.913Z,23.90
2022-12-24T03:39:13.694Z,27.80
2022-12-24T03:41:40.679Z,28.20
2022-12-24T03:44:07.900Z,30.20
2022-12-24T03:46:36.314Z,29.80
2022-12-24T03:49:03.886Z,27.30
2022-12-24T03:51:30.898Z,33.80
2022-12-24T03:53:57.875Z,23.10
2022-12-24T03:56:25.106Z,20.70
2022-12-24T03:58:52.428Z,23.30
2022-12-24T04:01:19.482Z,23.50
2022-12-24T04:03:46.612Z,27.70
2022-12-24T04:06:16.084Z,26.40
2022-12-24T04:08:43.675Z,26.10
2022-12-24T04:11:11.383Z,25.00
2022-12-24T04:13:39.645Z,30.30
2022-12-24T04:16:08.805Z,32.10
2022-12-24T04:18:36.475Z,32.20
2022-12-24T04:21:03.432Z,31.50
2022-12-24T04:23:31.895Z,25.10
2022-12-24T04:26:03.078Z,24.90
2022-12-24T04:28:30.682Z,23.60
2022-12-24T04:31:01.832Z,27.20
2022-12-24T04:33:29.078Z,26.60
2022-12-24T04:36:00.437Z,27.80
2022-12-24T04:38:27.911Z,29.10
2022-12-24T04:40:59.487Z,29.40
2022-12-24T04:43:27.960Z,31.70
2022-12-24T04:45:55.435Z,32.10
2022-12-24T04:48:22.824Z,31.30
2022-12-24T04:50:50.007Z,28.20
2022-12-24T04:53:17.090Z,26.60
2022-12-24T04:55:45.534Z,24.10
2022-12-24T04:58:14.505Z,24.90
2022-12-24T05:00:41.887Z,27.40
2022-12-24T05:03:08.710Z,28.90
2022-12-24T05:05:37.250Z,29.80
2022-12-24T05:08:04.691Z,27.40
2022-12-24T05:10:32.821Z,29.20
2022-12-24T05:13:00.253Z,27.80
2022-12-24T05:15:27.633Z,29.00
2022-12-24T05:17:54.466Z,29.70
2022-12-24T05:20:21.546Z,26.70
2022-12-24T05:23:07.608Z,30.40
2022-12-24T05:25:57.277Z,24.90
2022-12-24T05:28:25.174Z,25.20
2022-12-24T05:31:00.003Z,23.40
2022-12-24T05:33:27.006Z,36.70
2022-12-24T05:35:53.961Z,35.50
2022-12-24T05:38:21.727Z,33.60
2022-12-24T05:40:49.074Z,31.80
2022-12-24T05:43:15.924Z,38.10
2022-12-24T05:45:43.182Z,78.60
2022-12-24T05:48:10.494Z,62.70
2022-12-24T05:50:39.514Z,63.20
2022-12-24T05:53:07.384Z,39.10
2022-12-24T05:55:34.816Z,25.60
2022-12-24T05:58:01.618Z,25.70
2022-12-24T06:00:28.846Z,32.80
2022-12-24T06:02:55.871Z,63.40
2022-12-24T06:05:22.778Z,71.80
2022-12-24T06:15:31.407Z,50.40
2022-12-24T06:17:58.507Z,39.90
2022-12-24T06:20:25.344Z,37.00
2022-12-24T06:22:52.485Z,39.30
2022-12-24T06:25:19.671Z,36.50
2022-12-24T06:27:46.585Z,31.20
2022-12-24T06:30:18.376Z,22.90
2022-12-24T06:32:45.652Z,30.30
2022-12-24T06:35:13.162Z,33.50
2022-12-24T06:37:40.108Z,28.40
2022-12-24T06:40:07.821Z,29.50
2022-12-24T06:42:35.841Z,29.80
2022-12-24T06:45:08.130Z,32.20
2022-12-24T06:47:35.812Z,30.40
2022-12-24T06:50:02.943Z,35.30
2022-12-24T06:52:30.192Z,33.60
2022-12-24T06:54:57.225Z,29.10
2022-12-24T06:57:24.045Z,30.10
2022-12-24T06:59:50.916Z,29.80
2022-12-24T07:02:17.925Z,32.10
2022-12-24T07:04:44.764Z,35.80
2022-12-24T07:07:12.266Z,48.80
2022-12-24T07:09:40.690Z,37.50
2022-12-24T07:12:08.421Z,37.00
2022-12-24T07:14:35.969Z,37.80
2022-12-24T07:17:02.964Z,39.80
2022-12-24T07:19:30.228Z,31.90
2022-12-24T07:21:57.432Z,36.00
2022-12-24T07:24:24.461Z,26.90
2022-12-24T07:26:51.385Z,29.70
2022-12-24T07:29:18.603Z,27.00
2022-12-24T07:31:45.541Z,34.30
2022-12-24T07:34:12.337Z,35.40
2022-12-24T08:33:01.275Z,30.90
2022-12-24T08:35:28.735Z,34.40
2022-12-24T11:55:42.164Z,36.00
2022-12-24T11:58:17.665Z,31.10
2022-12-24T12:00:44.925Z,26.50
2022-12-24T12:03:58.396Z,23.20
2022-12-24T12:06:38.669Z,28.00
2022-12-24T12:09:07.414Z,29.90
2022-12-24T12:11:34.449Z,32.70
2022-12-24T12:14:04.574Z,31.00
2022-12-24T12:17:00.681Z,30.40
2022-12-24T12:19:29.282Z,37.10
2022-12-24T12:21:56.884Z,28.40
2022-12-24T12:24:32.397Z,24.20
2022-12-24T12:27:09.840Z,24.20
2022-12-24T12:29:40.197Z,28.00
2022-12-24T12:32:08.124Z,29.40
2022-12-24T12:34:41.270Z,35.40
2022-12-24T12:37:15.218Z,45.50
2022-12-24T12:39:42.321Z,32.80
2022-12-24T12:42:19.805Z,31.50
2022-12-24T12:45:05.234Z,26.70
2022-12-24T12:47:39.772Z,25.90
2022-12-24T12:50:19.095Z,22.40
2022-12-24T12:53:10.849Z,21.60
2022-12-24T12:59:38.675Z,28.50
2022-12-24T13:02:57.416Z,33.00
2022-12-24T13:05:49.958Z,28.20
2022-12-24T13:08:54.764Z,24.70
2022-12-24T13:11:43.852Z,21.60
2022-12-24T18:14:35.667Z,114.60
2022-12-24T18:17:03.125Z,103.30
2022-12-24T18:19:30.167Z,72.70
2022-12-24T18:21:57.095Z,82.40
2022-12-24T18:24:25.055Z,89.60
2022-12-24T18:26:52.031Z,87.00
2022-12-24T18:29:19.029Z,101.70
2022-12-24T18:31:45.965Z,110.40
2022-12-24T18:34:13.827Z,107.50
2022-12-24T18:36:40.939Z,105.00
2022-12-24T18:39:07.804Z,74.50
2022-12-24T18:41:35.872Z,77.00
2022-12-24T18:44:03.126Z,89.80
2022-12-24T18:46:32.532Z,91.20
2022-12-24T18:49:00.564Z,106.20
2022-12-24T18:51:32.612Z,102.40
2022-12-24T18:53:59.475Z,95.60
2022-12-24T18:56:27.173Z,98.40
2022-12-24T18:58:59.171Z,105.70
2022-12-24T19:01:28.147Z,76.10
2022-12-24T19:03:55.380Z,75.40
2022-12-24T19:06:23.413Z,78.20
2022-12-24T19:09:01.811Z,73.30
2022-12-24T19:11:30.826Z,81.30
2022-12-24T19:13:58.296Z,91.00
2022-12-24T19:16:26.319Z,86.00
2022-12-24T19:18:54.048Z,87.30
2022-12-24T19:21:21.183Z,85.90
2022-12-24T19:23:49.552Z,68.20
2022-12-24T19:26:17.395Z,66.20
2022-12-24T19:28:44.643Z,69.60
2022-12-24T19:31:13.305Z,65.10
2022-12-24T19:33:44.510Z,74.80
2022-12-24T19:36:13.867Z,82.80
2022-12-24T19:47:14.978Z,74.30
2022-12-24T19:49:42.214Z,75.80
2022-12-24T19:52:09.215Z,66.40
2022-12-24T19:54:36.715Z,65.10
2022-12-24T19:57:03.914Z,68.70
2022-12-24T19:59:31.819Z,66.60
2022-12-24T20:01:59.316Z,80.10
2022-12-24T20:04:26.444Z,77.50
2022-12-24T20:06:59.743Z,79.60
2022-12-24T20:09:28.297Z,71.00
2022-12-24T20:11:55.480Z,66.70
2022-12-24T20:14:22.917Z,54.00
2022-12-24T20:16:50.302Z,50.80
2022-12-24T20:19:17.221Z,60.20
2022-12-24T20:21:44.275Z,59.80
2022-12-24T20:24:11.729Z,73.10
2022-12-24T20:26:38.586Z,70.20
2022-12-24T20:29:08.669Z,73.90
2022-12-24T20:31:36.507Z,65.20
2022-12-24T20:34:09.519Z,64.50
2022-12-24T20:36:38.885Z,49.80
2022-12-24T20:39:06.470Z,42.50
2022-12-24T20:41:36.921Z,43.10
2022-12-24T20:44:07.431Z,39.80
2022-12-24T20:46:35.771Z,45.70
2022-12-24T20:49:02.863Z,46.20
2022-12-24T20:51:30.324Z,46.30
2022-12-24T20:53:58.964Z,43.90
2022-12-24T20:56:25.908Z,47.00
2022-12-24T20:58:53.300Z,51.70
2022-12-24T21:01:24.551Z,49.10
2022-12-24T21:03:53.551Z,39.20
2022-12-24T21:06:20.758Z,41.10
2022-12-24T21:08:50.718Z,43.00
2022-12-24T21:11:36.934Z,46.20
2022-12-24T21:14:04.074Z,53.20
2022-12-24T21:16:31.662Z,51.30
2022-12-24T21:18:59.114Z,48.40
2022-12-24T21:21:26.152Z,46.70
2022-12-24T21:23:53.036Z,46.30
2022-12-24T21:26:20.292Z,39.50
2022-12-24T21:28:47.410Z,43.00
2022-12-24T21:31:14.568Z,40.40
2022-12-24T21:33:42.079Z,50.30
2022-12-24T21:36:10.229Z,47.70
2022-12-24T21:38:37.230Z,47.60
2022-12-24T21:41:06.571Z,48.90
2022-12-24T21:43:34.047Z,52.60
2022-12-24T21:46:01.507Z,48.70
2022-12-24T21:48:47.683Z,46.50
2022-12-24T21:51:16.663Z,40.10
2022-12-24T21:54:02.056Z,37.70
2022-12-24T21:56:29.405Z,36.20
2022-12-24T21:58:56.656Z,46.20
2022-12-24T22:01:23.918Z,47.50
2022-12-24T22:03:51.825Z,45.00
2022-12-24T22:06:38.072Z,45.00
2022-12-24T22:09:24.007Z,46.90
2022-12-24T22:11:54.637Z,51.20
2022-12-24T22:14:22.030Z,43.10
2022-12-24T22:16:49.047Z,33.70
2022-12-24T22:19:16.045Z,33.40
2022-12-24T22:21:43.092Z,38.40
2022-12-24T22:24:09.959Z,40.50
2022-12-24T22:26:37.717Z,38.00
2022-12-24T22:29:05.695Z,40.80
2022-12-24T22:31:33.354Z,39.80
2022-12-24T22:34:00.592Z,42.20
2022-12-24T22:36:27.527Z,38.40
2022-12-24T22:38:54.541Z,36.50
2022-12-24T22:41:21.382Z,29.40
2022-12-24T22:43:48.964Z,29.90
2022-12-24T22:46:16.330Z,32.80
2022-12-24T22:48:44.004Z,36.70
2022-12-24T22:51:15.986Z,43.40
2022-12-24T22:53:42.901Z,37.00
2022-12-24T22:56:21.512Z,33.60
2022-12-24T22:58:53.709Z,38.40
2022-12-24T23:01:34.722Z,36.80
2022-12-24T23:04:02.004Z,25.60
2022-12-24T23:06:30.158Z,23.90
2022-12-24T23:08:57.237Z,26.00
2022-12-24T23:11:24.286Z,22.20
2022-12-24T23:16:39.410Z,23.80
2022-12-24T23:19:06.477Z,28.30
2022-12-24T23:21:33.880Z,25.40
2022-12-24T23:24:01.240Z,24.70
2022-12-24T23:26:28.553Z,27.00
2022-12-24T23:28:56.280Z,19.60
2022-12-24T23:31:23.855Z,20.60
2022-12-24T23:33:50.992Z,21.40
2022-12-24T23:36:18.435Z,21.10
2022-12-24T23:38:45.449Z,23.40
2022-12-24T23:41:13.509Z,23.80
2022-12-24T23:43:40.939Z,21.60
2022-12-24T23:46:07.982Z,22.70
2022-12-24T23:48:36.064Z,21.80
2022-12-24T23:51:07.383Z,24.40
2022-12-24T23:53:34.388Z,17.10
2022-12-24T23:56:01.347Z,15.40
2022-12-24T23:58:28.866Z,17.30
